sensor_id;sensor_type;location;lat;lon;timestamp;pressure;altitude;pressure_sealevel;temperature;humidity
13765;BME280;6953;48.810;9.204;2023-02-26T00:01:28;98311.50;;;2.43;86.83
13765;BME280;6953;48.810;9.204;2023-02-26T00:03:57;98293.69;;;2.31;87.20
13765;BME280;6953;48.810;9.204;2023-02-26T00:06:23;98111.91;;;1.33;86.17
13765;BME280;6953;48.810;9.204;2023-02-26T00:08:49;98286.72;;;2.34;86.26
13765;BME280;6953;48.810;9.204;2023-02-26T00:11:15;98303.69;;;2.44;85.31
13765;BME280;6953;48.810;9.204;2023-02-26T00:13:42;98071.25;;;1.08;85.36
13765;BME280;6953;48.810;9.204;2023-02-26T00:16:25;98056.97;;;0.94;84.81
13765;BME280;6953;48.810;9.204;2023-02-26T00:18:51;97996.16;;;0.50;84.78
13765;BME280;6953;48.810;9.204;2023-02-26T00:21:20;98303.22;;;2.30;85.32
13765;BME280;6953;48.810;9.204;2023-02-26T00:23:46;98279.00;;;2.01;85.44
13765;BME280;6953;48.810;9.204;2023-02-26T00:26:12;98323.38;;;2.18;85.59
13765;BME280;6953;48.810;9.204;2023-02-26T00:28:38;98256.19;;;1.83;85.10
13765;BME280;6953;48.810;9.204;2023-02-26T00:31:03;97992.41;;;0.27;85.55
13765;BME280;6953;48.810;9.204;2023-02-26T00:33:29;98014.63;;;0.32;85.56
13765;BME280;6953;48.810;9.204;2023-02-26T00:36:07;98307.72;;;1.91;86.09
13765;BME280;6953;48.810;9.204;2023-02-26T00:38:37;98319.59;;;1.98;86.29
13765;BME280;6953;48.810;9.204;2023-02-26T00:41:05;98317.88;;;1.97;86.26
13765;BME280;6953;48.810;9.204;2023-02-26T00:43:32;98319.72;;;1.93;86.36
13765;BME280;6953;48.810;9.204;2023-02-26T00:49:02;98320.03;;;1.80;86.57
13765;BME280;6953;48.810;9.204;2023-02-26T00:51:51;98349.63;;;1.68;85.84
13765;BME280;6953;48.810;9.204;2023-02-26T00:54:20;98158.41;;;0.62;86.55
13765;BME280;6953;48.810;9.204;2023-02-26T00:56:50;98223.84;;;0.98;86.97
13765;BME280;6953;48.810;9.204;2023-02-26T00:59:16;98326.69;;;1.55;87.12
13765;BME280;6953;48.810;9.204;2023-02-26T01:01:42;98349.06;;;1.56;86.88
13765;BME280;6953;48.810;9.204;2023-02-26T01:04:09;98324.91;;;1.57;86.98
13765;BME280;6953;48.810;9.204;2023-02-26T01:06:41;98331.84;;;1.56;87.62
13765;BME280;6953;48.810;9.204;2023-02-26T01:11:34;98345.75;;;1.49;87.12
13765;BME280;6953;48.810;9.204;2023-02-26T01:13:59;98308.25;;;1.33;87.36
13765;BME280;6953;48.810;9.204;2023-02-26T01:16:27;98330.44;;;1.42;87.26
13765;BME280;6953;48.810;9.204;2023-02-26T01:18:59;98322.81;;;1.37;87.06
13765;BME280;6953;48.810;9.204;2023-02-26T01:21:35;98323.78;;;1.32;87.65
13765;BME280;6953;48.810;9.204;2023-02-26T01:24:05;98327.41;;;1.23;87.96
13765;BME280;6953;48.810;9.204;2023-02-26T01:26:33;98298.81;;;0.93;88.43
13765;BME280;6953;48.810;9.204;2023-02-26T01:28:58;98245.59;;;0.47;88.45
13765;BME280;6953;48.810;9.204;2023-02-26T01:34:33;98082.06;;;-0.66;88.93
13765;BME280;6953;48.810;9.204;2023-02-26T01:42:45;98327.28;;;0.48;90.68
13765;BME280;6953;48.810;9.204;2023-02-26T01:45:16;98325.09;;;0.27;90.60
13765;BME280;6953;48.810;9.204;2023-02-26T01:47:58;98367.16;;;0.32;91.57
13765;BME280;6953;48.810;9.204;2023-02-26T01:50:26;98264.19;;;-0.25;91.42
13765;BME280;6953;48.810;9.204;2023-02-26T01:53:24;98335.56;;;0.19;92.10
13765;BME280;6953;48.810;9.204;2023-02-26T01:55:55;98374.34;;;0.13;92.83
13765;BME280;6953;48.810;9.204;2023-02-26T01:58:21;98334.91;;;0.07;93.23
13765;BME280;6953;48.810;9.204;2023-02-26T02:00:47;98326.16;;;-0.31;93.47
13765;BME280;6953;48.810;9.204;2023-02-26T02:03:13;98302.78;;;-0.21;93.87
13765;BME280;6953;48.810;9.204;2023-02-26T02:05:42;98341.97;;;-0.03;94.04
13765;BME280;6953;48.810;9.204;2023-02-26T02:08:11;98376.44;;;-0.08;94.62
13765;BME280;6953;48.810;9.204;2023-02-26T02:10:41;97967.38;;;-2.29;94.60
13765;BME280;6953;48.810;9.204;2023-02-26T02:13:16;98344.75;;;-0.14;95.91
13765;BME280;6953;48.810;9.204;2023-02-26T02:15:50;98321.78;;;-0.28;95.72
13765;BME280;6953;48.810;9.204;2023-02-26T02:18:43;98345.69;;;-0.18;95.31
13765;BME280;6953;48.810;9.204;2023-02-26T02:24:06;98352.78;;;-0.34;95.79
13765;BME280;6953;48.810;9.204;2023-02-26T02:26:58;98273.81;;;-0.89;96.28
13765;BME280;6953;48.810;9.204;2023-02-26T02:29:35;98398.50;;;-0.45;96.38
13765;BME280;6953;48.810;9.204;2023-02-26T02:32:16;98333.50;;;-0.62;96.93
13765;BME280;6953;48.810;9.204;2023-02-26T02:34:54;98366.75;;;-0.48;97.28
13765;BME280;6953;48.810;9.204;2023-02-26T02:37:33;98362.50;;;-0.51;96.68
13765;BME280;6953;48.810;9.204;2023-02-26T02:45:06;98263.41;;;-1.42;97.67
13765;BME280;6953;48.810;9.204;2023-02-26T02:47:36;98386.81;;;-0.71;98.37
13765;BME280;6953;48.810;9.204;2023-02-26T02:50:14;98360.41;;;-0.84;98.01
13765;BME280;6953;48.810;9.204;2023-02-26T02:53:08;98372.31;;;-0.77;98.18
13765;BME280;6953;48.810;9.204;2023-02-26T02:55:41;98393.97;;;-0.90;98.00
13765;BME280;6953;48.810;9.204;2023-02-26T02:58:23;98323.06;;;-1.13;98.85
13765;BME280;6953;48.810;9.204;2023-02-26T03:00:53;98377.56;;;-0.84;99.12
13765;BME280;6953;48.810;9.204;2023-02-26T03:03:37;98379.34;;;-0.88;98.63
13765;BME280;6953;48.810;9.204;2023-02-26T03:06:04;98376.84;;;-0.92;99.34
13765;BME280;6953;48.810;9.204;2023-02-26T03:08:34;98383.66;;;-0.91;99.35
13765;BME280;6953;48.810;9.204;2023-02-26T03:11:00;98370.13;;;-1.05;98.83
13765;BME280;6953;48.810;9.204;2023-02-26T03:13:25;98385.50;;;-1.01;98.76
13765;BME280;6953;48.810;9.204;2023-02-26T03:30:19;98262.69;;;-1.51;98.91
13765;BME280;6953;48.810;9.204;2023-02-26T03:32:57;98397.91;;;-0.66;99.18
13765;BME280;6953;48.810;9.204;2023-02-26T03:35:31;98164.69;;;-1.95;98.38
13765;BME280;6953;48.810;9.204;2023-02-26T03:38:02;98080.63;;;-2.49;98.16
13765;BME280;6953;48.810;9.204;2023-02-26T03:41:00;98400.59;;;-0.74;98.92
13765;BME280;6953;48.810;9.204;2023-02-26T03:43:38;98089.34;;;-2.63;98.66
13765;BME280;6953;48.810;9.204;2023-02-26T03:46:08;98404.22;;;-0.88;99.11
13765;BME280;6953;48.810;9.204;2023-02-26T03:48:35;98396.63;;;-0.97;99.73
13765;BME280;6953;48.810;9.204;2023-02-26T03:51:05;98406.06;;;-0.96;100.00
13765;BME280;6953;48.810;9.204;2023-02-26T03:53:38;98185.72;;;-2.34;99.46
13765;BME280;6953;48.810;9.204;2023-02-26T03:58:30;98094.00;;;-3.00;100.00
13765;BME280;6953;48.810;9.204;2023-02-26T04:01:02;98433.78;;;-1.19;100.00
13765;BME280;6953;48.810;9.204;2023-02-26T04:03:34;98414.97;;;-1.24;100.00
13765;BME280;6953;48.810;9.204;2023-02-26T04:06:02;98278.78;;;-2.11;100.00
13765;BME280;6953;48.810;9.204;2023-02-26T04:08:28;98426.19;;;-1.29;100.00
13765;BME280;6953;48.810;9.204;2023-02-26T04:10:59;98459.59;;;-1.28;100.00
13765;BME280;6953;48.810;9.204;2023-02-26T04:13:28;98421.03;;;-1.31;100.00
13765;BME280;6953;48.810;9.204;2023-02-26T04:15:53;98133.31;;;-2.98;100.00
13765;BME280;6953;48.810;9.204;2023-02-26T04:18:19;98407.38;;;-1.37;100.00
13765;BME280;6953;48.810;9.204;2023-02-26T04:20:44;98430.47;;;-1.28;100.00
13765;BME280;6953;48.810;9.204;2023-02-26T04:23:09;98441.59;;;-1.26;100.00
13765;BME280;6953;48.810;9.204;2023-02-26T04:25:35;98421.88;;;-1.29;100.00
13765;BME280;6953;48.810;9.204;2023-02-26T04:28:00;98448.56;;;-1.39;100.00
13765;BME280;6953;48.810;9.204;2023-02-26T04:30:26;98429.63;;;-1.32;100.00
13765;BME280;6953;48.810;9.204;2023-02-26T04:32:51;98473.34;;;-1.32;100.00
13765;BME280;6953;48.810;9.204;2023-02-26T04:35:16;98490.50;;;-1.32;100.00
13765;BME280;6953;48.810;9.204;2023-02-26T04:37:42;98301.03;;;-2.08;100.00
13765;BME280;6953;48.810;9.204;2023-02-26T04:40:08;98486.06;;;-1.18;100.00
13765;BME280;6953;48.810;9.204;2023-02-26T04:42:33;98442.25;;;-1.11;100.00
13765;BME280;6953;48.810;9.204;2023-02-26T04:44:58;98420.91;;;-1.20;100.00
13765;BME280;6953;48.810;9.204;2023-02-26T04:47:24;98456.88;;;-1.14;100.00
13765;BME280;6953;48.810;9.204;2023-02-26T04:49:49;98150.91;;;-2.60;100.00
13765;BME280;6953;48.810;9.204;2023-02-26T04:52:14;98363.56;;;-1.30;100.00
13765;BME280;6953;48.810;9.204;2023-02-26T04:54:40;98378.66;;;-1.02;100.00
13765;BME280;6953;48.810;9.204;2023-02-26T04:57:05;98454.44;;;-0.54;99.44
13765;BME280;6953;48.810;9.204;2023-02-26T04:59:31;98447.63;;;-0.58;99.04
13765;BME280;6953;48.810;9.204;2023-02-26T05:01:56;98431.59;;;-0.81;98.46
13765;BME280;6953;48.810;9.204;2023-02-26T05:04:22;98080.34;;;-3.00;98.19
13765;BME280;6953;48.810;9.204;2023-02-26T05:06:47;98459.19;;;-0.91;98.95
13765;BME280;6953;48.810;9.204;2023-02-26T05:09:12;98452.34;;;-0.93;99.50
13765;BME280;6953;48.810;9.204;2023-02-26T05:11:38;98181.75;;;-2.66;99.53
13765;BME280;6953;48.810;9.204;2023-02-26T05:14:03;98463.66;;;-1.06;99.98
13765;BME280;6953;48.810;9.204;2023-02-26T05:16:28;98469.75;;;-1.13;100.00
13765;BME280;6953;48.810;9.204;2023-02-26T05:18:54;98459.47;;;-1.16;100.00
13765;BME280;6953;48.810;9.204;2023-02-26T05:21:19;98478.34;;;-1.17;100.00
13765;BME280;6953;48.810;9.204;2023-02-26T05:23:46;98148.81;;;-3.07;100.00
13765;BME280;6953;48.810;9.204;2023-02-26T05:26:11;98469.84;;;-1.25;100.00
13765;BME280;6953;48.810;9.204;2023-02-26T05:28:36;98381.34;;;-1.87;100.00
13765;BME280;6953;48.810;9.204;2023-02-26T05:31:02;98046.88;;;-3.86;100.00
13765;BME280;6953;48.810;9.204;2023-02-26T05:33:27;98445.38;;;-1.63;100.00
13765;BME280;6953;48.810;9.204;2023-02-26T05:35:53;98495.78;;;-1.44;100.00
13765;BME280;6953;48.810;9.204;2023-02-26T05:38:18;98496.66;;;-1.47;100.00
13765;BME280;6953;48.810;9.204;2023-02-26T05:40:44;98453.34;;;-1.93;100.00
13765;BME280;6953;48.810;9.204;2023-02-26T05:43:09;98279.47;;;-2.89;100.00
13765;BME280;6953;48.810;9.204;2023-02-26T05:45:35;98215.63;;;-3.29;100.00
13765;BME280;6953;48.810;9.204;2023-02-26T05:48:00;98512.22;;;-1.65;100.00
13765;BME280;6953;48.810;9.204;2023-02-26T05:50:26;98429.53;;;-2.16;100.00
13765;BME280;6953;48.810;9.204;2023-02-26T05:52:51;98508.03;;;-1.73;100.00
13765;BME280;6953;48.810;9.204;2023-02-26T05:55:17;98208.09;;;-3.57;100.00
13765;BME280;6953;48.810;9.204;2023-02-26T05:57:43;98524.31;;;-1.74;100.00
13765;BME280;6953;48.810;9.204;2023-02-26T06:00:09;98191.06;;;-3.64;100.00
13765;BME280;6953;48.810;9.204;2023-02-26T06:02:34;98536.28;;;-1.70;100.00
13765;BME280;6953;48.810;9.204;2023-02-26T06:05:00;98203.84;;;-3.57;100.00
13765;BME280;6953;48.810;9.204;2023-02-26T06:07:25;98249.84;;;-3.31;100.00
13765;BME280;6953;48.810;9.204;2023-02-26T06:09:50;98537.97;;;-1.68;100.00
13765;BME280;6953;48.810;9.204;2023-02-26T06:12:16;98533.69;;;-1.67;100.00
13765;BME280;6953;48.810;9.204;2023-02-26T06:14:41;98569.75;;;-1.75;100.00
13765;BME280;6953;48.810;9.204;2023-02-26T06:17:06;98544.78;;;-1.62;100.00
13765;BME280;6953;48.810;9.204;2023-02-26T06:19:33;98574.75;;;-1.57;100.00
13765;BME280;6953;48.810;9.204;2023-02-26T06:21:58;98537.88;;;-1.57;100.00
13765;BME280;6953;48.810;9.204;2023-02-26T06:24:23;98561.84;;;-1.52;100.00
13765;BME280;6953;48.810;9.204;2023-02-26T06:26:49;98251.53;;;-3.30;100.00
13765;BME280;6953;48.810;9.204;2023-02-26T06:29:14;98608.94;;;-1.46;100.00
13765;BME280;6953;48.810;9.204;2023-02-26T06:31:42;98250.63;;;-3.22;100.00
13765;BME280;6953;48.810;9.204;2023-02-26T06:34:07;98421.84;;;-2.14;100.00
13765;BME280;6953;48.810;9.204;2023-02-26T06:36:33;98567.53;;;-1.17;100.00
13765;BME280;6953;48.810;9.204;2023-02-26T06:38:58;98562.31;;;-1.05;100.00
13765;BME280;6953;48.810;9.204;2023-02-26T06:41:23;98575.81;;;-0.83;100.00
13765;BME280;6953;48.810;9.204;2023-02-26T06:43:49;98568.84;;;-0.75;100.00
13765;BME280;6953;48.810;9.204;2023-02-26T06:46:14;98584.88;;;-0.49;100.00
13765;BME280;6953;48.810;9.204;2023-02-26T06:48:39;98549.06;;;-0.70;99.49
13765;BME280;6953;48.810;9.204;2023-02-26T06:51:05;98300.38;;;-2.31;99.06
13765;BME280;6953;48.810;9.204;2023-02-26T06:53:30;98643.00;;;-0.24;98.50
13765;BME280;6953;48.810;9.204;2023-02-26T06:55:55;98577.00;;;-0.37;98.04
13765;BME280;6953;48.810;9.204;2023-02-26T06:58:21;98621.31;;;-0.09;97.92
13765;BME280;6953;48.810;9.204;2023-02-26T07:00:46;98559.72;;;-0.30;97.03
13765;BME280;6953;48.810;9.204;2023-02-26T07:03:13;98383.19;;;-1.20;96.22
13765;BME280;6953;48.810;9.204;2023-02-26T07:05:39;98638.03;;;0.30;95.61
13765;BME280;6953;48.810;9.204;2023-02-26T07:08:05;98618.44;;;0.16;94.74
13765;BME280;6953;48.810;9.204;2023-02-26T07:10:32;98615.28;;;0.55;94.13
13765;BME280;6953;48.810;9.204;2023-02-26T07:12:58;98322.06;;;-1.03;93.41
13765;BME280;6953;48.810;9.204;2023-02-26T07:15:24;98620.81;;;0.88;92.66
13765;BME280;6953;48.810;9.204;2023-02-26T07:17:49;98511.38;;;0.45;91.77
13765;BME280;6953;48.810;9.204;2023-02-26T07:20:15;98572.41;;;0.99;91.42
13765;BME280;6953;48.810;9.204;2023-02-26T07:22:42;98552.34;;;1.14;90.24
13765;BME280;6953;48.810;9.204;2023-02-26T07:25:07;98370.56;;;0.34;89.52
13765;BME280;6953;48.810;9.204;2023-02-26T07:27:33;98616.97;;;2.01;88.14
13765;BME280;6953;48.810;9.204;2023-02-26T07:29:59;98548.31;;;1.86;86.90
13765;BME280;6953;48.810;9.204;2023-02-26T07:32:25;98627.78;;;2.58;85.65
13765;BME280;6953;48.810;9.204;2023-02-26T07:34:50;98614.31;;;2.81;85.17
13765;BME280;6953;48.810;9.204;2023-02-26T07:37:16;98624.09;;;3.05;82.55
13765;BME280;6953;48.810;9.204;2023-02-26T07:39:41;98644.13;;;3.33;79.96
13765;BME280;6953;48.810;9.204;2023-02-26T07:42:06;98538.88;;;2.94;81.11
13765;BME280;6953;48.810;9.204;2023-02-26T07:44:33;98552.88;;;3.19;80.80
13765;BME280;6953;48.810;9.204;2023-02-26T07:46:58;98538.31;;;3.15;80.84
13765;BME280;6953;48.810;9.204;2023-02-26T07:49:24;98382.03;;;2.17;78.60
13765;BME280;6953;48.810;9.204;2023-02-26T07:51:49;98623.19;;;3.40;78.70
13765;BME280;6953;48.810;9.204;2023-02-26T07:54:15;98386.69;;;2.03;78.53
13765;BME280;6953;48.810;9.204;2023-02-26T07:56:40;98673.19;;;3.45;79.15
13765;BME280;6953;48.810;9.204;2023-02-26T07:59:07;98649.03;;;3.43;79.22
13765;BME280;6953;48.810;9.204;2023-02-26T08:01:33;98377.28;;;2.01;78.97
13765;BME280;6953;48.810;9.204;2023-02-26T08:03:59;98649.72;;;4.12;79.33
13765;BME280;6953;48.810;9.204;2023-02-26T08:06:25;98658.16;;;4.49;76.67
13765;BME280;6953;48.810;9.204;2023-02-26T08:08:50;98647.56;;;5.11;73.56
13765;BME280;6953;48.810;9.204;2023-02-26T08:11:15;98648.59;;;5.33;74.17
13765;BME280;6953;48.810;9.204;2023-02-26T08:13:41;98397.50;;;4.27;72.01
13765;BME280;6953;48.810;9.204;2023-02-26T08:16:06;98632.59;;;6.41;67.40
13765;BME280;6953;48.810;9.204;2023-02-26T08:18:31;98617.69;;;6.44;67.25
13765;BME280;6953;48.810;9.204;2023-02-26T08:20:57;98671.00;;;7.03;64.00
13765;BME280;6953;48.810;9.204;2023-02-26T08:23:22;98663.13;;;7.67;61.39
13765;BME280;6953;48.810;9.204;2023-02-26T08:25:47;98647.97;;;7.75;60.67
13765;BME280;6953;48.810;9.204;2023-02-26T08:28:14;98666.53;;;7.48;60.61
13765;BME280;6953;48.810;9.204;2023-02-26T08:30:39;98634.34;;;7.69;58.64
13765;BME280;6953;48.810;9.204;2023-02-26T08:33:05;98592.53;;;7.29;58.73
13765;BME280;6953;48.810;9.204;2023-02-26T08:35:30;98529.41;;;6.58;59.65
13765;BME280;6953;48.810;9.204;2023-02-26T08:37:55;98681.31;;;7.27;60.49
13765;BME280;6953;48.810;9.204;2023-02-26T08:40:21;98641.16;;;8.88;55.27
13765;BME280;6953;48.810;9.204;2023-02-26T08:42:46;98645.44;;;11.67;46.03
13765;BME280;6953;48.810;9.204;2023-02-26T08:45:12;98630.19;;;13.53;41.08
13765;BME280;6953;48.810;9.204;2023-02-26T08:47:37;98420.53;;;13.11;36.31
13765;BME280;6953;48.810;9.204;2023-02-26T08:50:06;98498.28;;;14.05;34.43
13765;BME280;6953;48.810;9.204;2023-02-26T08:52:32;98604.97;;;12.83;37.81
13765;BME280;6953;48.810;9.204;2023-02-26T08:54:58;98672.44;;;11.09;43.46
13765;BME280;6953;48.810;9.204;2023-02-26T08:57:23;98648.94;;;9.25;48.19
13765;BME280;6953;48.810;9.204;2023-02-26T08:59:49;98684.75;;;7.91;53.27
13765;BME280;6953;48.810;9.204;2023-02-26T09:02:14;98435.97;;;5.61;55.78
13765;BME280;6953;48.810;9.204;2023-02-26T09:04:39;98683.53;;;6.94;57.92
13765;BME280;6953;48.810;9.204;2023-02-26T09:07:05;98624.66;;;6.67;58.63
13765;BME280;6953;48.810;9.204;2023-02-26T09:09:30;98666.75;;;7.01;59.48
13765;BME280;6953;48.810;9.204;2023-02-26T09:11:56;98423.00;;;5.38;59.47
13765;BME280;6953;48.810;9.204;2023-02-26T09:14:21;98597.34;;;6.54;60.02
13765;BME280;6953;48.810;9.204;2023-02-26T09:16:46;98686.63;;;6.82;60.34
13765;BME280;6953;48.810;9.204;2023-02-26T09:19:12;98612.88;;;5.88;62.21
13765;BME280;6953;48.810;9.204;2023-02-26T09:21:37;98695.28;;;6.12;63.86
13765;BME280;6953;48.810;9.204;2023-02-26T09:24:03;98673.19;;;5.99;64.19
13765;BME280;6953;48.810;9.204;2023-02-26T09:26:28;98561.25;;;5.26;64.49
13765;BME280;6953;48.810;9.204;2023-02-26T09:28:53;98699.84;;;6.07;64.74
13765;BME280;6953;48.810;9.204;2023-02-26T09:31:19;98681.66;;;6.06;65.87
13765;BME280;6953;48.810;9.204;2023-02-26T09:33:44;98697.13;;;6.10;65.97
13765;BME280;6953;48.810;9.204;2023-02-26T09:36:10;98746.75;;;6.06;66.16
13765;BME280;6953;48.810;9.204;2023-02-26T09:38:35;98392.53;;;3.94;66.56
13765;BME280;6953;48.810;9.204;2023-02-26T09:41:07;98724.78;;;5.62;67.42
13765;BME280;6953;48.810;9.204;2023-02-26T09:46:35;98721.78;;;4.94;69.60
13765;BME280;6953;48.810;9.204;2023-02-26T09:51:32;98740.28;;;5.12;70.95
13765;BME280;6953;48.810;9.204;2023-02-26T09:54:09;98742.56;;;5.21;70.69
13765;BME280;6953;48.810;9.204;2023-02-26T09:56:39;98716.00;;;5.11;70.26
13765;BME280;6953;48.810;9.204;2023-02-26T09:59:04;98677.72;;;4.89;71.02
13765;BME280;6953;48.810;9.204;2023-02-26T10:01:34;98774.22;;;5.35;70.57
13765;BME280;6953;48.810;9.204;2023-02-26T10:04:07;98779.47;;;5.33;70.52
13765;BME280;6953;48.810;9.204;2023-02-26T10:09:35;98750.47;;;5.71;71.04
13765;BME280;6953;48.810;9.204;2023-02-26T10:12:09;98493.34;;;4.06;69.84
13765;BME280;6953;48.810;9.204;2023-02-26T10:17:12;98550.41;;;4.07;71.51
13765;BME280;6953;48.810;9.204;2023-02-26T10:19:44;98753.91;;;5.47;71.54
13765;BME280;6953;48.810;9.204;2023-02-26T10:22:31;98757.72;;;5.63;70.87
13765;BME280;6953;48.810;9.204;2023-02-26T10:25:02;98792.78;;;5.79;69.69
13765;BME280;6953;48.810;9.204;2023-02-26T10:30:35;98748.69;;;6.01;68.19
13765;BME280;6953;48.810;9.204;2023-02-26T10:35:52;98779.00;;;6.02;67.09
13765;BME280;6953;48.810;9.204;2023-02-26T10:38:23;98757.88;;;6.11;66.68
13765;BME280;6953;48.810;9.204;2023-02-26T10:43:29;98767.31;;;6.62;66.23
13765;BME280;6953;48.810;9.204;2023-02-26T10:48:45;98762.16;;;6.83;65.30
13765;BME280;6953;48.810;9.204;2023-02-26T10:51:23;98761.88;;;6.68;63.50
13765;BME280;6953;48.810;9.204;2023-02-26T10:53:54;98764.63;;;6.40;64.21
13765;BME280;6953;48.810;9.204;2023-02-26T10:56:32;98771.84;;;6.32;64.93
13765;BME280;6953;48.810;9.204;2023-02-26T10:58:57;98765.03;;;6.04;64.18
13765;BME280;6953;48.810;9.204;2023-02-26T11:01:25;98780.69;;;6.03;65.83
13765;BME280;6953;48.810;9.204;2023-02-26T11:04:00;98498.16;;;4.45;65.97
13765;BME280;6953;48.810;9.204;2023-02-26T11:06:36;98779.31;;;6.18;66.17
13765;BME280;6953;48.810;9.204;2023-02-26T11:09:04;98524.91;;;4.74;65.26
13765;BME280;6953;48.810;9.204;2023-02-26T11:11:46;98517.22;;;4.70;64.86
13765;BME280;6953;48.810;9.204;2023-02-26T11:14:12;98771.22;;;6.50;64.42
13765;BME280;6953;48.810;9.204;2023-02-26T11:16:51;98801.97;;;7.11;62.93
13765;BME280;6953;48.810;9.204;2023-02-26T11:19:25;98570.72;;;7.31;59.68
13765;BME280;6953;48.810;9.204;2023-02-26T11:21:51;98743.84;;;11.31;50.74
13765;BME280;6953;48.810;9.204;2023-02-26T11:24:28;98712.56;;;13.83;38.88
13765;BME280;6953;48.810;9.204;2023-02-26T11:26:58;98791.50;;;15.28;35.68
13765;BME280;6953;48.810;9.204;2023-02-26T11:29:34;98776.06;;;15.34;36.36
13765;BME280;6953;48.810;9.204;2023-02-26T11:32:02;98799.16;;;14.03;38.12
13765;BME280;6953;48.810;9.204;2023-02-26T11:34:28;98774.75;;;12.91;40.59
13765;BME280;6953;48.810;9.204;2023-02-26T11:36:56;98798.78;;;12.42;41.41
13765;BME280;6953;48.810;9.204;2023-02-26T11:39:28;98748.34;;;11.29;43.65
13765;BME280;6953;48.810;9.204;2023-02-26T11:41:58;98692.13;;;11.01;43.33
13765;BME280;6953;48.810;9.204;2023-02-26T11:44:36;98674.53;;;12.51;39.98
13765;BME280;6953;48.810;9.204;2023-02-26T11:47:11;98757.81;;;12.66;40.25
13765;BME280;6953;48.810;9.204;2023-02-26T11:49:44;98540.72;;;12.99;38.73
13765;BME280;6953;48.810;9.204;2023-02-26T11:54:37;98708.44;;;12.42;38.50
13765;BME280;6953;48.810;9.204;2023-02-26T11:57:14;98735.66;;;10.89;41.49
13765;BME280;6953;48.810;9.204;2023-02-26T11:59:40;98538.41;;;9.36;43.85
13765;BME280;6953;48.810;9.204;2023-02-26T12:02:12;98771.28;;;10.10;46.36
13765;BME280;6953;48.810;9.204;2023-02-26T12:04:42;98703.66;;;8.94;49.65
13765;BME280;6953;48.810;9.204;2023-02-26T12:07:12;98748.19;;;8.74;51.64
13765;BME280;6953;48.810;9.204;2023-02-26T12:09:38;98767.69;;;8.47;53.92
13765;BME280;6953;48.810;9.204;2023-02-26T12:17:48;98784.81;;;8.13;54.57
13765;BME280;6953;48.810;9.204;2023-02-26T12:20:31;98523.59;;;6.52;55.74
13765;BME280;6953;48.810;9.204;2023-02-26T12:36:42;98787.50;;;6.80;61.07
13765;BME280;6953;48.810;9.204;2023-02-26T12:39:22;98726.69;;;6.32;60.86
13765;BME280;6953;48.810;9.204;2023-02-26T12:47:38;98788.97;;;6.64;62.78
13765;BME280;6953;48.810;9.204;2023-02-26T12:59:02;98780.16;;;8.99;53.58
13765;BME280;6953;48.810;9.204;2023-02-26T13:07:11;98789.13;;;8.35;53.54
13765;BME280;6953;48.810;9.204;2023-02-26T13:12:40;98794.34;;;8.35;52.54
13765;BME280;6953;48.810;9.204;2023-02-26T13:15:26;98760.56;;;7.68;52.49
13765;BME280;6953;48.810;9.204;2023-02-26T13:18:10;98803.50;;;7.61;53.94
13765;BME280;6953;48.810;9.204;2023-02-26T13:20:43;98778.28;;;7.38;54.52
13765;BME280;6953;48.810;9.204;2023-02-26T13:23:17;98718.03;;;7.23;54.54
13765;BME280;6953;48.810;9.204;2023-02-26T13:25:48;98769.81;;;7.55;53.93
13765;BME280;6953;48.810;9.204;2023-02-26T13:30:57;98802.81;;;7.77;53.30
13765;BME280;6953;48.810;9.204;2023-02-26T13:33:30;98790.91;;;8.13;53.05
13765;BME280;6953;48.810;9.204;2023-02-26T13:35:56;98743.50;;;8.22;51.00
13765;BME280;6953;48.810;9.204;2023-02-26T13:38:43;98801.13;;;8.59;51.29
13765;BME280;6953;48.810;9.204;2023-02-26T13:44:16;98780.97;;;8.42;49.35
13765;BME280;6953;48.810;9.204;2023-02-26T13:47:20;98780.03;;;8.24;48.29
13765;BME280;6953;48.810;9.204;2023-02-26T13:49:54;98804.28;;;8.47;47.48
13765;BME280;6953;48.810;9.204;2023-02-26T13:52:28;98794.84;;;8.23;47.61
13765;BME280;6953;48.810;9.204;2023-02-26T13:54:55;98764.69;;;8.15;48.27
13765;BME280;6953;48.810;9.204;2023-02-26T13:57:46;98820.09;;;8.44;47.95
13765;BME280;6953;48.810;9.204;2023-02-26T14:00:32;98817.59;;;8.41;48.66
13765;BME280;6953;48.810;9.204;2023-02-26T14:03:11;98637.38;;;6.96;50.43
13765;BME280;6953;48.810;9.204;2023-02-26T14:08:42;98607.69;;;6.11;50.66
13765;BME280;6953;48.810;9.204;2023-02-26T14:11:38;98565.66;;;5.73;51.75
13765;BME280;6953;48.810;9.204;2023-02-26T14:16:47;98839.00;;;7.20;51.32
13765;BME280;6953;48.810;9.204;2023-02-26T14:22:19;98814.31;;;7.73;51.05
13765;BME280;6953;48.810;9.204;2023-02-26T14:25:03;98561.78;;;6.74;50.09
13765;BME280;6953;48.810;9.204;2023-02-26T14:27:41;98840.56;;;8.13;48.90
13765;BME280;6953;48.810;9.204;2023-02-26T14:32:53;98812.66;;;7.49;50.06
13765;BME280;6953;48.810;9.204;2023-02-26T14:35:32;98620.59;;;5.90;50.97
13765;BME280;6953;48.810;9.204;2023-02-26T14:38:17;98803.72;;;6.65;52.02
13765;BME280;6953;48.810;9.204;2023-02-26T14:40:53;98795.28;;;6.57;51.47
13765;BME280;6953;48.810;9.204;2023-02-26T14:43:33;98752.50;;;6.39;51.64
13765;BME280;6953;48.810;9.204;2023-02-26T14:46:01;98819.81;;;6.76;49.28
13765;BME280;6953;48.810;9.204;2023-02-26T14:48:28;98842.34;;;6.77;49.00
13765;BME280;6953;48.810;9.204;2023-02-26T14:56:05;98851.03;;;7.02;49.42
13765;BME280;6953;48.810;9.204;2023-02-26T15:09:32;98615.25;;;5.44;50.33
13765;BME280;6953;48.810;9.204;2023-02-26T15:12:11;98841.72;;;6.70;50.45
13765;BME280;6953;48.810;9.204;2023-02-26T15:14:53;98844.50;;;6.66;51.65
13765;BME280;6953;48.810;9.204;2023-02-26T15:25:48;98869.53;;;5.37;54.87
13765;BME280;6953;48.810;9.204;2023-02-26T15:28:25;98855.91;;;5.29;55.69
13765;BME280;6953;48.810;9.204;2023-02-26T15:30:52;98820.69;;;4.89;56.71
13765;BME280;6953;48.810;9.204;2023-02-26T15:33:18;98850.31;;;4.84;57.62
13765;BME280;6953;48.810;9.204;2023-02-26T15:35:47;98727.47;;;3.85;58.56
13765;BME280;6953;48.810;9.204;2023-02-26T15:38:13;98850.56;;;4.43;59.47
13765;BME280;6953;48.810;9.204;2023-02-26T15:40:38;98811.56;;;4.11;59.42
13765;BME280;6953;48.810;9.204;2023-02-26T15:43:05;98603.91;;;2.84;59.17
13765;BME280;6953;48.810;9.204;2023-02-26T15:45:41;98865.31;;;4.41;58.91
13765;BME280;6953;48.810;9.204;2023-02-26T15:48:16;98858.38;;;4.41;58.50
13765;BME280;6953;48.810;9.204;2023-02-26T15:50:45;98858.28;;;4.46;58.94
13765;BME280;6953;48.810;9.204;2023-02-26T15:53:17;98786.16;;;4.23;58.59
13765;BME280;6953;48.810;9.204;2023-02-26T15:55:49;98866.31;;;4.69;58.68